Time;durP1;ratioP1;P1;durP2;ratioP2;P2;SDS_P1;SDS_P2;PMS_P1;PMS_P2;Temp;Humidity;BMP_temperature;BMP_pressure;BME280_temperature;BME280_humidity;BME280_pressure;Samples;Min_cycle;Max_cycle;Signal;HPM_P1;HPM_P2
2022/07/06 00:01:53;;;;;;;3.20;1.93;;;19.30;64.00;;;;;;5117320;27;20462;-84
2022/07/06 00:04:20;;;;;;;3.90;1.87;;;19.20;63.80;;;;;;5117152;28;20457;-84
2022/07/06 00:06:47;;;;;;;3.03;2.00;;;19.30;63.90;;;;;;5116754;27;20486;-83
2022/07/06 00:09:14;;;;;;;3.70;2.47;;;19.40;63.60;;;;;;5101036;28;20449;-85
2022/07/06 00:11:41;;;;;;;5.20;2.43;;;19.30;63.20;;;;;;5115100;28;20450;-85
2022/07/06 00:14:07;;;;;;;2.40;1.90;;;19.30;63.50;;;;;;5127361;27;20441;-82
2022/07/06 00:16:34;;;;;;;2.47;1.70;;;19.30;63.70;;;;;;5116904;27;20469;-85
2022/07/06 00:19:01;;;;;;;2.00;1.90;;;19.20;64.00;;;;;;5106095;28;20478;-84
2022/07/06 00:21:27;;;;;;;2.20;2.00;;;19.30;64.40;;;;;;5119046;28;20446;-84
2022/07/06 00:23:54;;;;;;;3.63;2.00;;;19.30;64.40;;;;;;5119173;27;20461;-83
2022/07/06 00:26:21;;;;;;;2.27;2.07;;;19.40;64.60;;;;;;5119327;27;20481;-84
2022/07/06 00:28:47;;;;;;;3.50;2.13;;;19.30;64.80;;;;;;5098615;28;20449;-82
2022/07/06 00:31:14;;;;;;;3.17;2.07;;;19.20;65.20;;;;;;5107246;28;20454;-83
2022/07/06 00:33:41;;;;;;;2.50;2.20;;;19.10;65.80;;;;;;5102084;27;20524;-85
2022/07/06 00:36:07;;;;;;;1.90;1.70;;;18.90;65.90;;;;;;5122939;27;20466;-82
2022/07/06 00:38:34;;;;;;;2.73;2.43;;;18.80;66.10;;;;;;5095739;28;20459;-82
2022/07/06 00:41:01;;;;;;;2.20;2.00;;;18.80;66.30;;;;;;5115371;28;20454;-83
2022/07/06 00:43:27;;;;;;;3.53;2.00;;;18.80;66.20;;;;;;5116850;28;20458;-83
2022/07/06 00:45:54;;;;;;;3.50;2.00;;;18.70;66.50;;;;;;5097535;28;20486;-83
2022/07/06 00:48:21;;;;;;;4.23;2.67;;;18.70;66.80;;;;;;5121200;27;20534;-85
2022/07/06 00:50:48;;;;;;;3.60;2.30;;;18.70;68.00;;;;;;5116959;28;20446;-82
2022/07/06 00:53:14;;;;;;;2.90;2.20;;;18.70;67.30;;;;;;5095648;28;20574;-81
2022/07/06 00:55:42;;;;;;;2.23;1.80;;;18.70;67.40;;;;;;5109146;28;20475;-83
2022/07/06 00:58:09;;;;;;;3.00;2.20;;;18.80;67.30;;;;;;5111395;27;20931;-84
2022/07/06 01:00:36;;;;;;;3.23;2.63;;;18.90;67.30;;;;;;5091097;28;20464;-82
2022/07/06 01:03:03;;;;;;;2.33;2.13;;;19.00;66.40;;;;;;5112487;27;20984;-82
2022/07/06 01:05:30;;;;;;;2.67;2.27;;;18.90;66.70;;;;;;5094910;27;20510;-81
2022/07/06 01:07:57;;;;;;;3.53;2.80;;;18.70;67.50;;;;;;5110962;28;20456;-81
2022/07/06 01:10:23;;;;;;;3.93;2.20;;;18.60;68.00;;;;;;5112856;28;20450;-82
2022/07/06 01:12:50;;;;;;;3.17;2.73;;;18.60;68.30;;;;;;5115108;27;20566;-82
2022/07/06 01:15:20;;;;;;;5.13;2.60;;;18.60;68.50;;;;;;5096278;28;20473;-83
2022/07/06 01:17:47;;;;;;;3.37;2.33;;;18.60;68.60;;;;;;5113921;27;20486;-80
2022/07/06 01:20:18;;;;;;;4.83;2.23;;;18.50;68.80;;;;;;5095322;28;20460;-80
2022/07/06 01:22:46;;;;;;;3.80;2.50;;;18.40;69.30;;;;;;5107643;28;20445;-84
2022/07/06 01:25:14;;;;;;;3.03;2.10;;;18.30;69.80;;;;;;5111123;28;20809;-83
2022/07/06 01:27:42;;;;;;;2.30;2.10;;;18.20;70.40;;;;;;5110620;27;20496;-85
2022/07/06 01:30:18;;;;;;;3.00;2.10;;;18.20;70.70;;;;;;5097325;28;20449;-85
2022/07/06 01:32:46;;;;;;;4.43;2.50;;;18.20;71.00;;;;;;5093799;28;20497;-84
2022/07/06 01:35:14;;;;;;;3.13;2.80;;;18.20;70.90;;;;;;5112335;27;20450;-85
2022/07/06 01:37:42;;;;;;;3.27;2.40;;;18.20;71.20;;;;;;5113084;28;21120;-84
2022/07/06 01:40:11;;;;;;;2.90;2.60;;;18.20;71.40;;;;;;5094037;28;20450;-83
2022/07/06 01:42:39;;;;;;;2.63;2.30;;;18.10;71.30;;;;;;5093787;28;20469;-81
2022/07/06 01:45:06;;;;;;;3.40;2.47;;;18.10;71.50;;;;;;5092121;28;20560;-79
2022/07/06 01:47:33;;;;;;;3.20;2.00;;;18.10;71.70;;;;;;5110274;28;20481;-83
2022/07/06 01:50:01;;;;;;;6.10;2.80;;;18.10;72.20;;;;;;5113868;28;20450;-79
2022/07/06 01:52:28;;;;;;;3.23;2.80;;;18.00;72.50;;;;;;5125403;28;20479;-83
2022/07/06 01:54:58;;;;;;;4.27;2.90;;;17.90;73.30;;;;;;5114177;28;20468;-84
2022/07/06 01:57:24;;;;;;;3.03;2.83;;;17.90;73.50;;;;;;5096957;28;20962;-82
2022/07/06 01:59:51;;;;;;;3.00;2.63;;;17.80;73.90;;;;;;5116460;28;20822;-79
2022/07/06 02:02:18;;;;;;;3.20;2.43;;;17.90;73.80;;;;;;5114405;28;20458;-82
2022/07/06 02:04:45;;;;;;;3.17;2.33;;;18.00;73.60;;;;;;5114889;28;20457;-80
2022/07/06 02:07:11;;;;;;;2.63;2.43;;;18.00;73.70;;;;;;5114771;28;20542;-81
2022/07/06 02:09:38;;;;;;;3.10;2.80;;;18.00;73.90;;;;;;5118966;28;20449;-80
2022/07/06 02:12:05;;;;;;;4.00;2.80;;;17.80;74.10;;;;;;5125236;28;20490;-82
2022/07/06 02:14:31;;;;;;;2.80;2.60;;;17.80;74.70;;;;;;5114211;28;20465;-84
2022/07/06 02:16:58;;;;;;;3.43;3.00;;;17.70;75.10;;;;;;5098639;28;20493;-84
2022/07/06 02:19:25;;;;;;;4.37;2.33;;;17.70;75.50;;;;;;5112822;28;20457;-82
2022/07/06 02:21:51;;;;;;;2.90;2.30;;;17.60;75.70;;;;;;5112399;28;20484;-82
2022/07/06 02:24:18;;;;;;;3.50;2.77;;;17.60;76.20;;;;;;5112705;27;20465;-82
2022/07/06 02:26:44;;;;;;;2.63;2.43;;;17.60;76.70;;;;;;5116939;28;20477;-81
2022/07/06 02:29:11;;;;;;;2.93;2.73;;;17.60;76.70;;;;;;5119647;27;20440;-85
2022/07/06 02:31:38;;;;;;;5.00;2.70;;;17.50;76.90;;;;;;5094243;28;20449;-81
2022/07/06 02:34:04;;;;;;;3.27;2.23;;;17.50;77.20;;;;;;5117185;27;20448;-80
2022/07/06 02:36:31;;;;;;;2.73;2.17;;;17.50;77.50;;;;;;5113470;27;20486;-83
2022/07/06 02:38:58;;;;;;;3.50;2.87;;;17.40;78.00;;;;;;5098084;28;20457;-84
2022/07/06 02:41:25;;;;;;;4.83;2.63;;;17.40;78.50;;;;;;5098271;28;20461;-80
2022/07/06 02:43:51;;;;;;;2.70;2.50;;;17.40;78.70;;;;;;5115688;27;20461;-83
2022/07/06 02:46:18;;;;;;;3.53;2.73;;;17.40;78.90;;;;;;5094788;28;20496;-83
2022/07/06 02:48:45;;;;;;;2.90;2.17;;;17.40;79.20;;;;;;5113029;27;20492;-83
2022/07/06 02:51:11;;;;;;;4.30;2.80;;;17.40;79.30;;;;;;5115665;27;20452;-82
2022/07/06 02:53:39;;;;;;;2.73;2.43;;;17.40;79.50;;;;;;5115903;27;20461;-83
2022/07/06 02:56:06;;;;;;;5.27;2.80;;;17.40;79.40;;;;;;5114894;27;20474;-83
2022/07/06 02:58:32;;;;;;;2.67;2.47;;;17.30;79.70;;;;;;5120079;27;20453;-83
2022/07/06 03:00:59;;;;;;;2.70;2.50;;;17.30;80.40;;;;;;5124097;27;21000;-81
2022/07/06 03:03:26;;;;;;;3.90;2.43;;;17.30;80.60;;;;;;5115327;27;20461;-83
2022/07/06 03:05:52;;;;;;;4.50;2.40;;;17.30;80.90;;;;;;5101073;27;20470;-83
2022/07/06 03:08:19;;;;;;;3.03;2.20;;;17.20;81.20;;;;;;5113739;28;20446;-82
2022/07/06 03:10:46;;;;;;;4.33;2.53;;;17.20;81.40;;;;;;5117570;27;20449;-82
2022/07/06 03:13:13;;;;;;;4.37;2.40;;;17.20;81.60;;;;;;5115276;27;20563;-82
2022/07/06 03:15:40;;;;;;;2.77;2.53;;;17.20;81.70;;;;;;5114555;28;20461;-80
2022/07/06 03:18:06;;;;;;;3.77;2.53;;;17.20;81.70;;;;;;5095616;28;20453;-83
2022/07/06 03:20:33;;;;;;;3.10;2.67;;;17.20;82.10;;;;;;5118038;27;20461;-82
2022/07/06 03:23:00;;;;;;;4.83;2.40;;;17.20;82.30;;;;;;5120628;27;20465;-82
2022/07/06 03:25:26;;;;;;;2.77;2.20;;;17.30;82.40;;;;;;5112052;28;21036;-83
2022/07/06 03:27:53;;;;;;;3.37;2.07;;;17.30;82.50;;;;;;5115647;27;20549;-83
2022/07/06 03:30:19;;;;;;;3.70;2.60;;;17.20;82.60;;;;;;5092794;28;20460;-83
2022/07/06 03:32:46;;;;;;;4.40;2.50;;;17.10;83.10;;;;;;5119144;28;20458;-82
2022/07/06 03:35:13;;;;;;;5.40;3.00;;;17.10;83.50;;;;;;5115583;28;20477;-82
2022/07/06 03:37:40;;;;;;;3.23;2.60;;;17.10;83.70;;;;;;5098181;28;20913;-82
2022/07/06 03:40:07;;;;;;;10.83;4.13;;;17.20;83.70;;;;;;5119853;28;20553;-83
2022/07/06 03:42:35;;;;;;;2.73;2.30;;;17.20;83.80;;;;;;5120887;28;20469;-83
2022/07/06 03:45:01;;;;;;;5.53;2.83;;;17.10;83.80;;;;;;5103869;28;20457;-82
2022/07/06 03:47:28;;;;;;;3.03;2.50;;;17.00;84.60;;;;;;5125412;28;20491;-83
2022/07/06 03:49:54;;;;;;;3.60;2.70;;;17.00;84.90;;;;;;5131365;28;20442;-87
2022/07/06 03:52:21;;;;;;;3.37;2.13;;;16.90;85.20;;;;;;5138693;28;20479;-84
2022/07/06 03:54:48;;;;;;;3.33;2.60;;;16.90;85.40;;;;;;5136143;28;20991;-86
2022/07/06 03:57:14;;;;;;;4.13;2.70;;;16.90;85.80;;;;;;5130628;28;20469;-83
2022/07/06 03:59:41;;;;;;;3.00;2.43;;;16.90;86.00;;;;;;5134586;28;20438;-85
2022/07/06 04:02:08;;;;;;;2.70;2.50;;;16.90;86.10;;;;;;5136726;27;20440;-84
2022/07/06 04:04:34;;;;;;;4.87;3.47;;;16.90;86.20;;;;;;5132485;27;20457;-84
2022/07/06 04:07:01;;;;;;;3.17;2.37;;;16.80;86.40;;;;;;5120574;27;20523;-81
2022/07/06 04:09:28;;;;;;;3.77;2.63;;;16.80;87.00;;;;;;5111687;27;20456;-82
2022/07/06 04:11:54;;;;;;;3.30;3.00;;;16.70;87.20;;;;;;5113092;28;20457;-83
2022/07/06 04:14:21;;;;;;;3.50;2.90;;;16.70;87.60;;;;;;5113751;27;20449;-82
2022/07/06 04:16:48;;;;;;;3.83;2.63;;;16.80;87.60;;;;;;5095517;28;20473;-84
2022/07/06 04:19:15;;;;;;;2.40;2.20;;;16.80;87.70;;;;;;5095331;28;20454;-83
2022/07/06 04:21:41;;;;;;;3.77;2.47;;;16.80;88.20;;;;;;5111881;27;20468;-82
2022/07/06 04:24:08;;;;;;;3.20;2.70;;;16.80;88.00;;;;;;5113513;28;20450;-82
2022/07/06 04:26:35;;;;;;;5.00;2.47;;;16.80;87.80;;;;;;5112158;28;20486;-82
2022/07/06 04:29:01;;;;;;;3.30;2.83;;;16.80;88.10;;;;;;5113460;28;20915;-84
2022/07/06 04:31:28;;;;;;;4.60;2.30;;;16.90;88.20;;;;;;5110658;28;20643;-82
2022/07/06 04:33:55;;;;;;;3.63;2.87;;;16.90;88.40;;;;;;5095566;28;20811;-85
2022/07/06 04:36:21;;;;;;;3.50;3.00;;;16.80;88.20;;;;;;5108727;27;20473;-84
2022/07/06 04:38:48;;;;;;;4.93;2.90;;;16.80;88.50;;;;;;5095171;28;20536;-82
2022/07/06 04:41:15;;;;;;;5.17;3.07;;;16.80;88.60;;;;;;5110816;27;20460;-84
2022/07/06 04:43:43;;;;;;;4.80;3.13;;;16.80;88.70;;;;;;5110788;28;20472;-84
2022/07/06 04:46:10;;;;;;;3.53;2.87;;;16.90;88.60;;;;;;5117616;27;20465;-83
2022/07/06 04:48:39;;;;;;;2.70;2.50;;;16.90;88.50;;;;;;5113873;28;20513;-82
2022/07/06 04:51:05;;;;;;;5.30;2.80;;;16.90;88.70;;;;;;5113667;27;20499;-84
2022/07/06 04:53:32;;;;;;;4.43;3.00;;;16.80;89.00;;;;;;5115842;27;20457;-84
2022/07/06 04:55:59;;;;;;;5.43;2.80;;;16.90;89.40;;;;;;5107417;27;20540;-85
2022/07/06 04:58:25;;;;;;;2.80;2.60;;;16.90;89.50;;;;;;5118714;27;20472;-83
2022/07/06 05:00:53;;;;;;;5.80;3.23;;;16.90;89.50;;;;;;5122387;27;20449;-84
2022/07/06 05:03:20;;;;;;;3.57;2.60;;;17.00;89.60;;;;;;5126806;28;20450;-82
2022/07/06 05:05:47;;;;;;;3.60;2.80;;;17.00;89.40;;;;;;5127171;28;20581;-85
2022/07/06 05:08:13;;;;;;;3.00;2.77;;;17.00;89.40;;;;;;5125637;28;20466;-83
2022/07/06 05:10:40;;;;;;;2.90;2.60;;;17.00;89.40;;;;;;5121677;28;20453;-84
2022/07/06 05:13:07;;;;;;;5.53;3.20;;;17.00;89.50;;;;;;5116551;28;20449;-84
2022/07/06 05:15:33;;;;;;;4.00;2.80;;;17.00;89.90;;;;;;5112362;28;20458;-82
2022/07/06 05:18:00;;;;;;;4.70;2.90;;;16.90;90.00;;;;;;5116049;28;20461;-83
2022/07/06 05:20:27;;;;;;;6.40;2.90;;;17.00;90.10;;;;;;5099802;28;20477;-81
2022/07/06 05:22:54;;;;;;;4.37;2.50;;;17.00;90.10;;;;;;5117549;28;20462;-84
2022/07/06 05:25:21;;;;;;;4.00;2.90;;;16.90;90.30;;;;;;5136503;27;20466;-80
2022/07/06 05:27:47;;;;;;;3.73;2.90;;;16.90;90.40;;;;;;5115651;28;20481;-83
2022/07/06 05:30:15;;;;;;;6.70;4.50;;;17.00;90.40;;;;;;5117641;27;20441;-82
2022/07/06 05:32:42;;;;;;;4.97;3.63;;;17.00;90.40;;;;;;5128619;27;20452;-85
2022/07/06 05:35:09;;;;;;;7.87;3.53;;;17.00;90.50;;;;;;5123521;27;20449;-82
2022/07/06 05:37:55;;;;;;;4.43;3.03;;;17.20;90.40;;;;;;5096186;28;20445;-83
2022/07/06 05:40:22;;;;;;;4.60;2.30;;;17.20;90.10;;;;;;5097242;28;20460;-83
2022/07/06 05:42:49;;;;;;;4.57;2.50;;;17.40;90.00;;;;;;5117968;28;20461;-82
2022/07/06 05:45:15;;;;;;;8.20;2.03;;;17.50;89.40;;;;;;5112459;28;20451;-84
2022/07/06 05:50:28;;;;;;;4.50;1.97;;;17.70;88.30;;;;;;5117164;28;20457;-83
2022/07/06 05:53:03;;;;;;;2.53;2.00;;;17.70;88.20;;;;;;5116490;28;20445;-82
2022/07/06 05:55:38;;;;;;;5.00;2.10;;;17.60;88.60;;;;;;5111134;28;20453;-81
2022/07/06 05:58:05;;;;;;;5.07;2.47;;;17.60;88.70;;;;;;5119228;28;20447;-82
2022/07/06 06:00:32;;;;;;;3.90;2.10;;;17.60;89.30;;;;;;5122634;28;20498;-82
2022/07/06 06:02:59;;;;;;;3.60;1.77;;;17.70;89.00;;;;;;5125700;28;20806;-82
2022/07/06 06:05:26;;;;;;;6.67;2.90;;;17.80;88.50;;;;;;5135436;28;20434;-84
2022/07/06 06:07:53;;;;;;;3.50;2.80;;;18.00;87.70;;;;;;5138419;28;20458;-81
2022/07/06 06:10:21;;;;;;;3.60;2.03;;;18.00;87.60;;;;;;5152278;27;20437;-84
2022/07/06 06:12:48;;;;;;;4.53;1.77;;;18.10;87.50;;;;;;5121598;28;20494;-83
2022/07/06 06:15:15;;;;;;;2.90;1.60;;;18.40;86.50;;;;;;5123653;28;20503;-83
2022/07/06 06:17:42;;;;;;;5.50;2.17;;;18.70;85.00;;;;;;5118197;28;20474;-85
2022/07/06 06:20:12;;;;;;;2.43;1.33;;;18.70;84.20;;;;;;5136569;28;20449;-85
2022/07/06 06:22:47;;;;;;;4.00;1.53;;;18.90;83.60;;;;;;5139863;28;20426;-86
2022/07/06 06:25:19;;;;;;;3.17;1.30;;;18.90;82.50;;;;;;5124067;28;20519;-85
2022/07/06 06:27:46;;;;;;;2.20;1.80;;;18.70;83.50;;;;;;5116579;28;20499;-87
2022/07/06 06:30:13;;;;;;;2.50;2.10;;;19.10;82.60;;;;;;5121219;28;20460;-86
2022/07/06 06:32:40;;;;;;;4.57;1.80;;;18.90;82.60;;;;;;5139288;27;20437;-84
2022/07/06 06:35:10;;;;;;;2.30;1.73;;;18.70;83.10;;;;;;5139097;27;20469;-82
2022/07/06 06:37:37;;;;;;;6.07;2.40;;;18.60;84.20;;;;;;5135792;27;20464;-83
2022/07/06 06:40:05;;;;;;;4.50;2.00;;;18.60;84.10;;;;;;5120604;28;20544;-85
2022/07/06 06:42:35;;;;;;;6.07;2.30;;;18.90;84.00;;;;;;5131328;27;20472;-84
2022/07/06 06:45:01;;;;;;;5.03;2.40;;;18.90;82.90;;;;;;5126796;28;20445;-84
2022/07/06 06:47:28;;;;;;;7.10;1.67;;;19.00;82.80;;;;;;5107235;28;20473;-82
2022/07/06 06:49:55;;;;;;;2.50;1.53;;;19.10;81.80;;;;;;5122451;28;20446;-81
2022/07/06 06:52:21;;;;;;;3.00;1.23;;;19.00;82.00;;;;;;5120323;27;20548;-83
2022/07/06 06:55:06;;;;;;;5.30;1.83;;;19.30;81.40;;;;;;5107274;27;20501;-83
2022/07/06 06:57:33;;;;;;;4.87;1.47;;;19.10;80.30;;;;;;5118416;27;20469;-84
2022/07/06 07:00:01;;;;;;;4.33;1.80;;;19.00;80.60;;;;;;5123718;27;20520;-84
2022/07/06 07:02:28;;;;;;;2.70;1.50;;;19.20;80.30;;;;;;5100966;28;20452;-81
2022/07/06 07:04:55;;;;;;;1.53;0.70;;;19.40;79.10;;;;;;5119059;27;20548;-81
2022/07/06 07:07:22;;;;;;;2.87;1.20;;;19.60;77.90;;;;;;5118552;27;20514;-84
2022/07/06 07:09:48;;;;;;;4.50;0.90;;;19.50;77.90;;;;;;5105213;28;20449;-84
2022/07/06 07:12:16;;;;;;;6.33;1.67;;;19.20;77.90;;;;;;5100157;28;20464;-83
2022/07/06 07:14:44;;;;;;;1.30;1.00;;;19.30;78.70;;;;;;5118356;27;20456;-81
2022/07/06 07:17:11;;;;;;;4.33;1.60;;;19.40;78.20;;;;;;5111695;28;20540;-84
2022/07/06 07:19:38;;;;;;;2.60;1.17;;;19.70;77.80;;;;;;5103000;28;20489;-83
2022/07/06 07:22:05;;;;;;;3.93;1.40;;;19.90;76.90;;;;;;5114104;27;20459;-83
2022/07/06 07:24:32;;;;;;;2.80;1.60;;;20.30;75.30;;;;;;5103328;28;20470;-84
2022/07/06 07:26:59;;;;;;;2.23;1.00;;;20.10;73.90;;;;;;5116827;28;20465;-84
2022/07/06 07:29:25;;;;;;;4.10;1.40;;;20.00;73.70;;;;;;5124734;27;20457;-81
2022/07/06 07:31:52;;;;;;;1.20;1.00;;;20.10;73.00;;;;;;5125484;27;20456;-83
2022/07/06 07:34:19;;;;;;;2.10;1.30;;;20.20;72.50;;;;;;5134328;27;20445;-81
2022/07/06 07:36:45;;;;;;;3.00;1.57;;;20.20;72.00;;;;;;5124004;28;20477;-82
2022/07/06 07:39:12;;;;;;;3.07;1.73;;;20.50;70.50;;;;;;5119886;28;20451;-82
2022/07/06 07:41:39;;;;;;;3.40;1.23;;;20.40;70.10;;;;;;5121501;27;20454;-80
2022/07/06 07:44:06;;;;;;;5.27;1.53;;;20.40;70.80;;;;;;5121397;27;20472;-85
2022/07/06 07:46:32;;;;;;;1.87;1.20;;;20.60;69.50;;;;;;5108443;28;20480;-82
2022/07/06 07:48:59;;;;;;;4.07;2.40;;;20.60;68.20;;;;;;5118847;28;20477;-83
2022/07/06 07:51:26;;;;;;;1.50;1.13;;;20.10;69.50;;;;;;5119706;28;20438;-83
2022/07/06 07:53:52;;;;;;;4.40;1.40;;;20.00;68.70;;;;;;5118394;27;20470;-85
2022/07/06 07:56:19;;;;;;;3.63;1.70;;;19.70;69.20;;;;;;5118752;28;20884;-84
2022/07/06 07:58:48;;;;;;;2.40;1.40;;;19.90;69.80;;;;;;5105389;28;20454;-84
2022/07/06 08:01:17;;;;;;;2.63;1.17;;;20.30;68.70;;;;;;5118002;27;20441;-85
2022/07/06 08:03:43;;;;;;;2.00;1.00;;;20.50;66.60;;;;;;5099969;27;20449;-83
2022/07/06 08:06:10;;;;;;;3.27;1.03;;;20.40;66.50;;;;;;5124701;27;20461;-84
2022/07/06 08:08:37;;;;;;;2.90;0.90;;;20.60;66.00;;;;;;5118552;28;20500;-85
2022/07/06 08:11:04;;;;;;;2.20;1.17;;;20.80;66.70;;;;;;5099937;28;20818;-83
2022/07/06 08:13:46;;;;;;;1.53;1.10;;;20.60;66.00;;;;;;5121282;27;20974;-85
2022/07/06 08:16:13;;;;;;;1.70;1.37;;;20.30;65.90;;;;;;5100463;28;20469;-83
2022/07/06 08:18:39;;;;;;;3.80;0.90;;;20.10;66.40;;;;;;5119537;27;20479;-84
2022/07/06 08:21:07;;;;;;;2.50;1.07;;;20.80;65.30;;;;;;5116705;27;20530;-85
2022/07/06 08:23:51;;;;;;;2.70;1.20;;;21.00;64.10;;;;;;5114160;28;20468;-84
2022/07/06 08:26:18;;;;;;;2.27;1.30;;;21.10;64.00;;;;;;5097876;27;20481;-82
2022/07/06 08:28:45;;;;;;;2.40;1.10;;;21.10;62.50;;;;;;5116512;27;20735;-83
2022/07/06 08:31:12;;;;;;;4.00;1.60;;;20.80;63.20;;;;;;5121922;27;20509;-81
2022/07/06 08:33:59;;;;;;;1.37;1.07;;;20.80;64.10;;;;;;5118858;27;20437;-85
2022/07/06 08:36:26;;;;;;;2.23;0.83;;;21.20;64.80;;;;;;5119692;27;20551;-83
2022/07/06 08:38:53;;;;;;;3.17;1.07;;;21.40;63.50;;;;;;5116642;28;20446;-84
2022/07/06 08:41:23;;;;;;;8.27;1.30;;;21.10;63.80;;;;;;5100524;28;20465;-83
2022/07/06 08:43:52;;;;;;;2.47;1.10;;;20.90;64.10;;;;;;5124518;27;20481;-84
2022/07/06 08:46:24;;;;;;;2.27;1.73;;;20.70;64.60;;;;;;5118771;27;20560;-84
2022/07/06 08:48:51;;;;;;;3.03;1.50;;;20.40;65.10;;;;;;5100544;27;20495;-84
2022/07/06 08:51:20;;;;;;;2.60;0.90;;;20.20;65.70;;;;;;5124808;27;20430;-84
2022/07/06 08:53:50;;;;;;;3.10;1.00;;;20.10;65.30;;;;;;5099265;28;20476;-83
2022/07/06 08:56:18;;;;;;;2.80;1.33;;;20.10;64.20;;;;;;5113976;28;20473;-82
2022/07/06 08:58:45;;;;;;;2.10;0.87;;;20.20;64.40;;;;;;5122436;28;20449;-82
2022/07/06 09:01:12;;;;;;;1.93;1.10;;;20.20;65.30;;;;;;5119722;28;20442;-82
2022/07/06 09:03:40;;;;;;;6.33;1.07;;;20.10;66.10;;;;;;5100448;28;20453;-83
2022/07/06 09:06:08;;;;;;;2.63;1.63;;;20.10;65.80;;;;;;5131719;27;20448;-84
2022/07/06 09:08:38;;;;;;;1.73;0.80;;;20.20;66.00;;;;;;5135536;27;20480;-82
2022/07/06 09:11:04;;;;;;;3.33;1.10;;;20.40;66.00;;;;;;5117039;28;20473;-80
2022/07/06 09:13:31;;;;;;;1.70;0.90;;;20.40;65.80;;;;;;5100391;28;20460;-83
2022/07/06 09:16:10;;;;;;;1.93;0.80;;;20.40;64.60;;;;;;5112340;28;20473;-84
2022/07/06 09:18:57;;;;;;;1.83;1.50;;;20.30;64.70;;;;;;5120359;27;20523;-81
2022/07/06 09:21:31;;;;;;;7.00;1.77;;;20.30;64.80;;;;;;5105449;28;20432;-83
2022/07/06 09:24:02;;;;;;;7.00;1.80;;;20.20;65.00;;;;;;5115522;28;20494;-83
2022/07/06 09:26:29;;;;;;;3.07;1.10;;;20.10;65.90;;;;;;5115037;27;20473;-84
2022/07/06 09:28:57;;;;;;;2.60;1.57;;;20.20;66.90;;;;;;5117830;27;20488;-83
2022/07/06 09:31:23;;;;;;;2.90;1.00;;;20.30;66.00;;;;;;5102872;28;20450;-83
2022/07/06 09:33:59;;;;;;;6.80;1.60;;;20.30;66.50;;;;;;5124034;27;20950;-83
2022/07/06 09:36:41;;;;;;;5.27;1.30;;;20.30;66.90;;;;;;5100114;28;20969;-83
2022/07/06 09:39:27;;;;;;;3.20;0.97;;;20.20;66.70;;;;;;5124996;27;20480;-81
2022/07/06 09:41:57;;;;;;;1.90;1.23;;;20.10;66.00;;;;;;5096146;28;20472;-83
2022/07/06 09:44:30;;;;;;;1.13;0.87;;;20.10;66.10;;;;;;5115032;28;20486;-82
2022/07/06 09:47:02;;;;;;;1.20;0.90;;;20.20;65.10;;;;;;5120208;28;20481;-81
2022/07/06 09:49:29;;;;;;;3.50;1.63;;;20.10;65.40;;;;;;5127833;28;20473;-79
2022/07/06 09:51:58;;;;;;;1.80;0.70;;;20.10;66.10;;;;;;5110498;28;20840;-84
2022/07/06 09:54:25;;;;;;;1.43;1.23;;;20.10;66.40;;;;;;5115425;28;20457;-83
2022/07/06 09:56:55;;;;;;;1.93;0.90;;;20.30;65.00;;;;;;5114683;28;20472;-85
2022/07/06 09:59:27;;;;;;;1.23;0.93;;;20.30;64.40;;;;;;5102222;28;20477;-84
2022/07/06 10:01:57;;;;;;;1.10;1.00;;;20.50;63.90;;;;;;5098981;28;20449;-84
2022/07/06 10:04:26;;;;;;;1.07;0.83;;;21.40;62.40;;;;;;5123689;28;20442;-82
2022/07/06 10:06:54;;;;;;;1.63;1.30;;;21.50;60.80;;;;;;5131665;28;20466;-84
2022/07/06 10:09:23;;;;;;;1.60;0.90;;;21.40;60.80;;;;;;5115533;28;20473;-82
2022/07/06 10:11:51;;;;;;;3.10;2.33;;;21.50;60.80;;;;;;5119384;28;20453;-83
2022/07/06 10:14:21;;;;;;;1.27;1.17;;;21.40;59.60;;;;;;5103191;28;20497;-83
2022/07/06 10:16:49;;;;;;;2.33;1.13;;;21.30;60.60;;;;;;5118402;28;20477;-84
2022/07/06 10:19:17;;;;;;;13.40;2.47;;;21.30;61.10;;;;;;5117782;28;20981;-86
2022/07/06 10:21:45;;;;;;;0.80;0.70;;;21.60;60.50;;;;;;5099347;28;20457;-85
2022/07/06 10:24:13;;;;;;;1.00;0.90;;;22.10;58.60;;;;;;5123227;28;20552;-85
2022/07/06 10:26:41;;;;;;;1.93;1.03;;;21.80;58.60;;;;;;5097459;28;20489;-84
2022/07/06 10:29:08;;;;;;;1.40;1.00;;;22.30;59.00;;;;;;5101135;28;20476;-82
2022/07/06 10:31:39;;;;;;;3.03;0.90;;;23.20;57.60;;;;;;5116049;28;20531;-84
2022/07/06 10:34:10;;;;;;;2.33;1.00;;;24.00;55.10;;;;;;5090460;28;20503;-85
2022/07/06 10:36:43;;;;;;;1.60;0.87;;;23.90;55.10;;;;;;5110341;28;20523;-84
2022/07/06 10:41:02;;;;;;;4.30;1.40;;;23.50;56.30;;;;;;5117052;28;20441;-82
2022/07/06 10:42:00;;;;;;;1.77;0.80;;;23.40;56.40;;;;;;5102500;28;20477;-84
2022/07/06 10:44:27;;;;;;;2.03;1.03;;;23.60;55.40;;;;;;5118241;28;20549;-81
2022/07/06 10:46:58;;;;;;;1.17;0.80;;;23.80;54.40;;;;;;5132187;27;20982;-83
2022/07/06 10:49:26;;;;;;;16.53;2.43;;;24.50;54.20;;;;;;5127228;27;20470;-82
2022/07/06 10:52:16;;;;;;;1.80;1.10;;;24.90;51.20;;;;;;5111857;27;20912;-85
2022/07/06 10:54:43;;;;;;;1.43;1.00;;;24.60;51.60;;;;;;5121656;27;20552;-83
2022/07/06 10:57:14;;;;;;;3.50;2.30;;;24.30;51.70;;;;;;5120172;27;20476;-84
2022/07/06 10:59:59;;;;;;;1.70;0.77;;;24.20;52.70;;;;;;5115355;27;20461;-85
2022/07/06 11:02:40;;;;;;;4.17;0.80;;;23.70;52.00;;;;;;5121646;27;20476;-84
2022/07/06 11:05:12;;;;;;;1.97;0.97;;;23.50;51.60;;;;;;5123567;27;20466;-84
2022/07/06 11:07:50;;;;;;;1.57;1.20;;;23.60;51.90;;;;;;5119898;27;20477;-82
2022/07/06 11:10:17;;;;;;;1.00;0.87;;;24.20;51.00;;;;;;5120654;27;20481;-84
2022/07/06 11:12:46;;;;;;;2.97;1.20;;;24.30;50.20;;;;;;5119365;27;20460;-84
2022/07/06 11:15:53;;;;;;;2.23;1.07;;;24.10;50.40;;;;;;5113444;28;20461;-84
2022/07/06 11:18:20;;;;;;;2.90;0.80;;;24.00;50.00;;;;;;5119451;28;20449;-83
2022/07/06 11:21:20;;;;;;;1.70;1.00;;;24.40;50.30;;;;;;5127255;27;20544;-84
2022/07/06 11:23:49;;;;;;;1.90;0.80;;;24.60;49.70;;;;;;5107272;28;20445;-87
2022/07/06 11:26:17;;;;;;;3.50;0.90;;;24.80;49.40;;;;;;5133213;28;20457;-80
2022/07/06 11:28:48;;;;;;;6.57;1.57;;;25.30;48.40;;;;;;5131438;28;20468;-82
2022/07/06 11:31:15;;;;;;;5.97;1.20;;;25.30;47.50;;;;;;5129154;28;20446;-81
2022/07/06 11:33:45;;;;;;;5.43;1.23;;;25.30;45.40;;;;;;5129326;28;20449;-79
2022/07/06 11:36:17;;;;;;;9.40;2.33;;;24.60;45.90;;;;;;5108063;28;20485;-86
2022/07/06 11:38:44;;;;;;;1.93;1.27;;;24.50;46.50;;;;;;5126461;28;20434;-82
2022/07/06 11:41:13;;;;;;;1.27;1.17;;;24.50;47.00;;;;;;5129823;27;20445;-81
2022/07/06 11:43:43;;;;;;;0.93;0.90;;;24.70;46.60;;;;;;5110761;28;20450;-82
2022/07/06 11:46:25;;;;;;;2.93;1.00;;;25.50;45.10;;;;;;5125159;28;20462;-80
2022/07/06 11:48:56;;;;;;;1.83;1.53;;;25.00;45.70;;;;;;5126687;28;20470;-82
2022/07/06 11:51:28;;;;;;;3.50;1.30;;;24.70;46.70;;;;;;5107828;27;20444;-81
2022/07/06 11:53:57;;;;;;;1.57;1.10;;;24.40;47.60;;;;;;5119529;28;20477;-81
2022/07/06 11:56:27;;;;;;;2.80;1.57;;;24.20;48.40;;;;;;5108750;27;20461;-83
2022/07/06 11:58:58;;;;;;;1.50;1.20;;;24.00;48.90;;;;;;5122778;28;20454;-82
2022/07/06 12:01:28;;;;;;;2.50;0.90;;;23.70;49.40;;;;;;5122469;27;20450;-83
2022/07/06 12:04:00;;;;;;;1.73;1.07;;;23.50;49.60;;;;;;5108318;28;20450;-84
2022/07/06 12:06:28;;;;;;;3.70;1.20;;;23.60;49.70;;;;;;5112650;28;20491;-82
2022/07/06 12:08:57;;;;;;;3.27;2.00;;;23.30;50.30;;;;;;5121390;27;20542;-82
2022/07/06 12:11:33;;;;;;;1.67;1.10;;;23.30;50.60;;;;;;5108601;28;20515;-82
2022/07/06 12:14:21;;;;;;;3.23;0.83;;;23.30;50.10;;;;;;5124330;27;20442;-81
2022/07/06 12:16:50;;;;;;;2.57;1.00;;;23.60;50.40;;;;;;5121402;27;20561;-82
2022/07/06 12:19:17;;;;;;;4.43;1.30;;;23.80;50.40;;;;;;5118938;27;20450;-81
2022/07/06 12:21:49;;;;;;;1.70;1.00;;;24.00;50.00;;;;;;5103674;28;20445;-82
2022/07/06 12:24:21;;;;;;;5.20;0.87;;;24.40;48.90;;;;;;5102214;28;21025;-84
2022/07/06 12:26:49;;;;;;;3.10;1.50;;;24.60;48.60;;;;;;5120540;27;20850;-84
2022/07/06 12:29:16;;;;;;;3.70;1.27;;;25.00;48.20;;;;;;5122164;27;20589;-84
2022/07/06 12:31:55;;;;;;;2.83;1.37;;;24.70;48.80;;;;;;5121640;28;20804;-84
2022/07/06 12:34:27;;;;;;;1.60;1.10;;;24.40;49.50;;;;;;5103051;28;20449;-85
2022/07/06 12:36:56;;;;;;;1.77;1.40;;;24.20;48.60;;;;;;5108473;27;20623;-83
2022/07/06 12:39:25;;;;;;;2.27;1.10;;;24.00;48.50;;;;;;5120281;28;20837;-79
2022/07/06 12:42:00;;;;;;;1.13;1.00;;;24.00;48.50;;;;;;5107352;27;20450;-85
2022/07/06 12:44:27;;;;;;;3.37;1.10;;;23.90;48.70;;;;;;5123010;27;20466;-85
2022/07/06 12:47:16;;;;;;;1.53;0.90;;;23.90;48.80;;;;;;5105282;28;20470;-83
2022/07/06 12:49:42;;;;;;;3.53;1.03;;;24.10;49.30;;;;;;5123089;27;21059;-83
2022/07/06 12:52:14;;;;;;;3.80;1.13;;;24.30;48.80;;;;;;5122447;27;20447;-83
2022/07/06 12:54:45;;;;;;;2.03;1.20;;;24.40;48.60;;;;;;5119290;27;20544;-83
2022/07/06 12:57:17;;;;;;;10.63;2.50;;;24.40;49.00;;;;;;5118315;27;20983;-85